Meath Environmental Platform

Observations for Trim Patrick St

Time AQI Temp °C Hum % Pres Pa CO μg/m³ H₂S μg/m³ NO μg/m³ NO₂ μg/m³ O₃ μg/m³ SO₂ μg/m³ PM1 μg/m³ PM2.5 μg/m³ PM10 μg/m³
Friday 28 August 2026
16:16 2 34.9 37 69,418 0 0 0.28 5.74 78.65 21.59 6.29 11.96 13.15
16:15 2 34.8 37 69,395 0 0 0.29 6.17 84.49 23.13 7.14 14.37 15.8
16:14 2 34.7 38 69,395 0 0 0.3 7.99 77.41 21.06 8.86 15.07 16.57
16:13 2 34.7 37 69,395 0 0 0.3 12.06 110.22 19.62 8 15.17 16.69
16:12 2 34.7 37 69,399 0 0 0.3 11.95 134.66 20.47 8 15.16 16.67
16:11 2 34.7 36 69,399 0 0 0.3 4.31 94.44 23.42 8 14.41 15.85
16:10 2 34.8 36 69,402 0 0 0.29 12.07 140.96 20.19 8 14.44 15.88
16:09 2 34.8 38 69,406 0 0 0.3 6.45 113.19 20.54 6.29 12.73 14
16:08 2 34.8 35 69,387 0 0 0.27 0 57.12 23.52 7.14 14.49 15.94
16:07 2 34.8 38 69,393 0 0 0.32 6.72 71.43 20.74 8.86 16.63 18.29
16:06 2 34.7 38 69,393 0 0 0.31 5.32 56.64 21.33 7.14 14.31 15.74
16:05 2 34.7 38 69,391 0 0 0.33 10.46 102.16 21.36 7.14 13.46 14.81
16:04 2 34.7 38 69,391 0 0 0.32 12.5 115.53 20.35 7.14 12.68 13.95
16:02 2 34.9 37 69,389 0 0 0.28 5.63 79.7 21.27 7.14 14.36 15.79
16:01 2 34.9 36 69,385 0 0 0.27 1.23 74.34 22.57 8 14.42 15.87
15:57 2 34.8 39 69,387 0 0 0.33 10.43 107.36 20.82 8.86 14.95 16.44
15:56 2 34.7 40 69,387 0 0 0.36 12.27 80.69 19.69 7.14 14.06 15.47
15:55 2 34.6 38 69,383 0 0 0.33 5.69 80.45 21.78 8.86 15.83 17.41
15:54 2 34.5 38 69,385 0 0 0.33 9.43 87.48 19.89 6.29 13.52 14.87
15:53 2 34.4 36 69,383 0 0 0.34 6.5 74.57 20.52 8 14.4 15.84